Kezdőlap
METAR-TAF:

METAR-TAF

Repülőterek :

Hyderabad, India

földrajzi szélesség: 17-27N, földrajzi hosszúság: 078-28E, magasság: 530 m

Jelenlegi meteorológiai megfigyelések

A jelentés 35 perccel ezelõtt készült, 08:00 UTC
Déli szél 8 kt
Hőmérséklet 40°C
Páratartalom 15%
Légköri nyomás 1010 hPa
Látótávolság: 6000 m

METAR: VOHY 240800Z 19008KT 6000 NSC 40/08 Q1010 NOSIG

Idő: 14:05 (08:35 UTC)

Előrejelzés

A jelentés 35 perccel ezelõtt készült, 08:00 UTC
Az előrejelzés 24-én 09 óra UTC és 24-én 18 óra UTC között érvényes
Dél-délnyugati szél 10 kt
Látótávolság: 6000 m
Kevés felhő 2000 lábon
24-én 11 óra UTC és 24-én 15 óra UTC között ideiglenes
Kevés felhő 2500 lábon, Tornyos gomolyfelhő.

TAF: VOHY 240800Z 2409/2418 21010KT 6000 FEW020 TEMPO 2411/2415 FEW025TCU

Meteorológiai megfigyelések és előrejelzések több, mint 4000 repülőtéren (METAR és TAF jelentéseket).

A térképen piros és sárga pontok jelzik az elérhető meteorológiai állomásokat.

Mozgassa az egeret a pont fölött, hogy megjelenjen az állomás neve.

Azután kattintson az időjárási megfigyelések és előrejelzések megtekintéséhez.

A térkép megváltoztatása: kattintson a fekete keresztel jelölt zöld gombra ráközelítéshez, a vonallal jelölt zöld gombra távolításhoz, vagy a zöld nyilakra a szomszédos térképek eléréséhez.


METAR-TAF: